sensor_id;sensor_type;location;lat;lon;timestamp;pressure;altitude;pressure_sealevel;temperature;humidity
54918;BME280;40818;50.562;7.454;2023-04-05T00:03:16;98364.16;;;0.55;65.43
54918;BME280;40818;50.562;7.454;2023-04-05T00:13:20;98366.94;;;0.39;65.96
54918;BME280;40818;50.562;7.454;2023-04-05T00:23:27;98358.63;;;0.23;67.28
54918;BME280;40818;50.562;7.454;2023-04-05T00:33:36;98343.47;;;0.11;67.63
54918;BME280;40818;50.562;7.454;2023-04-05T00:43:43;98338.50;;;0.02;68.45
54918;BME280;40818;50.562;7.454;2023-04-05T00:53:46;98331.69;;;0.02;68.76
54918;BME280;40818;50.562;7.454;2023-04-05T01:03:58;98317.44;;;-0.14;69.88
54918;BME280;40818;50.562;7.454;2023-04-05T01:14:03;98320.00;;;-0.16;70.39
54918;BME280;40818;50.562;7.454;2023-04-05T01:24:16;98318.22;;;-0.09;67.68
54918;BME280;40818;50.562;7.454;2023-04-05T01:34:30;98313.16;;;-0.11;67.36
54918;BME280;40818;50.562;7.454;2023-04-05T01:44:36;98308.09;;;-0.14;67.77
54918;BME280;40818;50.562;7.454;2023-04-05T01:54:42;98294.59;;;-0.22;67.91
54918;BME280;40818;50.562;7.454;2023-04-05T02:04:45;98283.63;;;-0.33;68.96
54918;BME280;40818;50.562;7.454;2023-04-05T02:14:51;98289.69;;;-0.41;68.37
54918;BME280;40818;50.562;7.454;2023-04-05T02:24:55;98290.84;;;-0.66;73.84
54918;BME280;40818;50.562;7.454;2023-04-05T02:35:01;98270.81;;;-1.00;76.89
54918;BME280;40818;50.562;7.454;2023-04-05T02:45:05;98271.84;;;-1.20;79.20
54918;BME280;40818;50.562;7.454;2023-04-05T02:55:12;98277.09;;;-1.35;80.28
54918;BME280;40818;50.562;7.454;2023-04-05T03:05:16;98264.47;;;-1.49;81.96
54918;BME280;40818;50.562;7.454;2023-04-05T03:15:26;98259.50;;;-1.65;83.71
54918;BME280;40818;50.562;7.454;2023-04-05T03:25:35;98258.78;;;-1.82;85.57
54918;BME280;40818;50.562;7.454;2023-04-05T03:35:42;98264.75;;;-1.83;85.69
54918;BME280;40818;50.562;7.454;2023-04-05T03:45:47;98268.03;;;-1.69;84.21
54918;BME280;40818;50.562;7.454;2023-04-05T03:55:53;98262.91;;;-1.63;82.69
54918;BME280;40818;50.562;7.454;2023-04-05T04:06:12;98256.06;;;-1.61;83.03
54918;BME280;40818;50.562;7.454;2023-04-05T04:16:18;98253.59;;;-1.72;83.87
54918;BME280;40818;50.562;7.454;2023-04-05T04:26:42;98252.84;;;-1.83;85.22
54918;BME280;40818;50.562;7.454;2023-04-05T04:37:07;98252.09;;;-1.94;86.38
54918;BME280;40818;50.562;7.454;2023-04-05T04:47:40;98259.72;;;-1.93;86.02
54918;BME280;40818;50.562;7.454;2023-04-05T04:58:06;98249.63;;;-2.08;87.98
54918;BME280;40818;50.562;7.454;2023-04-05T05:08:12;98254.75;;;-2.11;88.72
54918;BME280;40818;50.562;7.454;2023-04-05T05:18:19;98252.22;;;-1.07;81.38
54918;BME280;40818;50.562;7.454;2023-04-05T05:28:23;98253.75;;;0.36;72.93
54918;BME280;40818;50.562;7.454;2023-04-05T05:38:33;98252.00;;;0.89;68.91
54918;BME280;40818;50.562;7.454;2023-04-05T05:48:42;98245.09;;;0.43;69.91
54918;BME280;40818;50.562;7.454;2023-04-05T05:58:49;98246.84;;;0.92;70.81
54918;BME280;40818;50.562;7.454;2023-04-05T06:08:52;98256.84;;;1.05;70.45
54918;BME280;40818;50.562;7.454;2023-04-05T06:18:58;98259.22;;;1.12;68.82
54918;BME280;40818;50.562;7.454;2023-04-05T06:29:02;98260.53;;;1.33;71.56
54918;BME280;40818;50.562;7.454;2023-04-05T06:39:08;98261.38;;;1.76;68.38
54918;BME280;40818;50.562;7.454;2023-04-05T06:49:12;98257.84;;;2.19;68.57
54918;BME280;40818;50.562;7.454;2023-04-05T06:59:18;98254.94;;;2.35;63.62
54918;BME280;40818;50.562;7.454;2023-04-05T07:09:21;98249.72;;;3.07;68.09
54918;BME280;40818;50.562;7.454;2023-04-05T07:19:28;98252.69;;;3.54;59.96
54918;BME280;40818;50.562;7.454;2023-04-05T07:29:31;98249.91;;;4.19;57.83
54918;BME280;40818;50.562;7.454;2023-04-05T07:39:40;98250.81;;;4.18;59.46
54918;BME280;40818;50.562;7.454;2023-04-05T07:49:44;98243.25;;;4.67;56.27
54918;BME280;40818;50.562;7.454;2023-04-05T07:59:50;98235.63;;;6.52;53.88
54918;BME280;40818;50.562;7.454;2023-04-05T08:09:55;98234.47;;;7.97;48.93
54918;BME280;40818;50.562;7.454;2023-04-05T08:20:02;98226.53;;;8.56;46.68
54918;BME280;40818;50.562;7.454;2023-04-05T08:30:07;98236.75;;;7.27;46.64
54918;BME280;40818;50.562;7.454;2023-04-05T08:40:14;98230.31;;;7.75;48.91
54918;BME280;40818;50.562;7.454;2023-04-05T08:50:17;98224.28;;;7.94;44.71
54918;BME280;40818;50.562;7.454;2023-04-05T09:00:24;98232.66;;;7.61;45.21
54918;BME280;40818;50.562;7.454;2023-04-05T09:10:28;98222.84;;;8.42;45.60
54918;BME280;40818;50.562;7.454;2023-04-05T09:20:35;98220.47;;;8.20;46.82
54918;BME280;40818;50.562;7.454;2023-04-05T09:30:44;98223.81;;;7.47;46.04
54918;BME280;40818;50.562;7.454;2023-04-05T09:40:51;98225.66;;;7.04;47.60
54918;BME280;40818;50.562;7.454;2023-04-05T09:51:05;98209.38;;;8.35;48.15
54918;BME280;40818;50.562;7.454;2023-04-05T10:01:13;98217.50;;;6.74;44.46
54918;BME280;40818;50.562;7.454;2023-04-05T10:11:17;98199.19;;;8.50;43.48
54918;BME280;40818;50.562;7.454;2023-04-05T10:21:28;98191.38;;;9.36;44.35
54918;BME280;40818;50.562;7.454;2023-04-05T10:31:39;98174.50;;;9.93;42.77
54918;BME280;40818;50.562;7.454;2023-04-05T10:41:52;98163.66;;;10.91;40.37
54918;BME280;40818;50.562;7.454;2023-04-05T10:51:57;98166.84;;;10.52;43.18
54918;BME280;40818;50.562;7.454;2023-04-05T11:02:04;98163.34;;;11.81;41.44
54918;BME280;40818;50.562;7.454;2023-04-05T11:12:07;98157.69;;;11.47;41.67
54918;BME280;40818;50.562;7.454;2023-04-05T11:22:24;98151.06;;;12.25;38.79
54918;BME280;40818;50.562;7.454;2023-04-05T11:32:38;98145.69;;;11.59;38.29
54918;BME280;40818;50.562;7.454;2023-04-05T11:42:45;98131.47;;;12.19;40.41
54918;BME280;40818;50.562;7.454;2023-04-05T11:53:06;98116.09;;;13.80;35.21
54918;BME280;40818;50.562;7.454;2023-04-05T12:03:13;98113.38;;;12.31;38.38
54918;BME280;40818;50.562;7.454;2023-04-05T12:13:24;98109.91;;;12.17;38.09
54918;BME280;40818;50.562;7.454;2023-04-05T12:23:30;98090.47;;;13.50;36.20
54918;BME280;40818;50.562;7.454;2023-04-05T12:33:39;98093.13;;;11.95;38.61
54918;BME280;40818;50.562;7.454;2023-04-05T12:43:47;98084.84;;;13.68;36.39
54918;BME280;40818;50.562;7.454;2023-04-05T12:53:55;98071.31;;;13.98;31.32
54918;BME280;40818;50.562;7.454;2023-04-05T13:04:02;98063.81;;;11.10;35.07
54918;BME280;40818;50.562;7.454;2023-04-05T13:14:06;98057.34;;;10.45;39.47
54918;BME280;40818;50.562;7.454;2023-04-05T13:24:12;98048.44;;;10.35;40.09
54918;BME280;40818;50.562;7.454;2023-04-05T13:34:15;98050.53;;;9.83;40.66
54918;BME280;40818;50.562;7.454;2023-04-05T13:44:21;98025.09;;;10.64;39.76
54918;BME280;40818;50.562;7.454;2023-04-05T13:54:25;98017.66;;;10.57;39.13
54918;BME280;40818;50.562;7.454;2023-04-05T14:04:31;98023.31;;;9.60;40.33
54918;BME280;40818;50.562;7.454;2023-04-05T14:14:35;98018.44;;;9.70;39.24
54918;BME280;40818;50.562;7.454;2023-04-05T14:24:41;98000.75;;;10.07;39.08
54918;BME280;40818;50.562;7.454;2023-04-05T14:34:44;97985.94;;;10.09;39.44
54918;BME280;40818;50.562;7.454;2023-04-05T14:44:50;97970.69;;;9.74;37.30
54918;BME280;40818;50.562;7.454;2023-04-05T14:54:54;97960.91;;;11.07;38.55
54918;BME280;40818;50.562;7.454;2023-04-05T15:05:00;97954.53;;;10.14;38.24
54918;BME280;40818;50.562;7.454;2023-04-05T15:15:05;97950.13;;;9.71;38.99
54918;BME280;40818;50.562;7.454;2023-04-05T15:25:11;97944.13;;;9.40;39.71
54918;BME280;40818;50.562;7.454;2023-04-05T15:35:15;97945.13;;;8.75;40.27
54918;BME280;40818;50.562;7.454;2023-04-05T15:45:21;97942.03;;;8.84;40.18
54918;BME280;40818;50.562;7.454;2023-04-05T15:55:25;97939.41;;;9.16;39.74
54918;BME280;40818;50.562;7.454;2023-04-05T16:05:31;97934.06;;;9.19;38.10
54918;BME280;40818;50.562;7.454;2023-04-05T16:15:37;97929.78;;;8.88;39.15
54918;BME280;40818;50.562;7.454;2023-04-05T16:25:43;97924.19;;;8.64;39.13
54918;BME280;40818;50.562;7.454;2023-04-05T16:35:47;97912.25;;;8.61;39.74
54918;BME280;40818;50.562;7.454;2023-04-05T16:45:53;97920.25;;;8.07;41.07
54918;BME280;40818;50.562;7.454;2023-04-05T16:55:56;97918.88;;;8.00;39.98
54918;BME280;40818;50.562;7.454;2023-04-05T17:06:03;97918.84;;;8.17;40.26
54918;BME280;40818;50.562;7.454;2023-04-05T17:16:07;97924.75;;;7.70;40.82
54918;BME280;40818;50.562;7.454;2023-04-05T17:26:14;97916.75;;;7.22;42.40
54918;BME280;40818;50.562;7.454;2023-04-05T17:36:17;97918.47;;;7.04;42.91
54918;BME280;40818;50.562;7.454;2023-04-05T17:46:25;97922.72;;;6.88;43.21
54918;BME280;40818;50.562;7.454;2023-04-05T17:56:28;97929.03;;;6.63;43.61
54918;BME280;40818;50.562;7.454;2023-04-05T18:06:34;97933.50;;;6.40;44.59
54918;BME280;40818;50.562;7.454;2023-04-05T18:16:38;97939.75;;;6.15;45.02
54918;BME280;40818;50.562;7.454;2023-04-05T18:26:44;97929.38;;;5.96;44.73
54918;BME280;40818;50.562;7.454;2023-04-05T18:36:47;97944.66;;;5.80;45.79
54918;BME280;40818;50.562;7.454;2023-04-05T18:46:53;97946.38;;;5.59;46.00
54918;BME280;40818;50.562;7.454;2023-04-05T18:56:58;97962.88;;;5.35;47.17
54918;BME280;40818;50.562;7.454;2023-04-05T19:07:04;97972.03;;;5.20;47.25
54918;BME280;40818;50.562;7.454;2023-04-05T19:17:08;97970.19;;;4.79;49.22
54918;BME280;40818;50.562;7.454;2023-04-05T19:27:14;97980.88;;;4.44;49.18
54918;BME280;40818;50.562;7.454;2023-04-05T19:37:18;97981.56;;;4.26;49.88
54918;BME280;40818;50.562;7.454;2023-04-05T19:47:24;97976.69;;;4.18;49.43
54918;BME280;40818;50.562;7.454;2023-04-05T19:57:28;97980.31;;;4.13;49.21
54918;BME280;40818;50.562;7.454;2023-04-05T20:07:39;97970.56;;;3.97;49.51
54918;BME280;40818;50.562;7.454;2023-04-05T20:17:43;97973.78;;;3.79;50.28
54918;BME280;40818;50.562;7.454;2023-04-05T20:27:49;97975.19;;;3.62;50.40
54918;BME280;40818;50.562;7.454;2023-04-05T20:37:53;97973.94;;;3.47;50.91
54918;BME280;40818;50.562;7.454;2023-04-05T20:47:59;97967.59;;;3.32;51.08
54918;BME280;40818;50.562;7.454;2023-04-05T20:58:02;97963.88;;;3.14;51.95
54918;BME280;40818;50.562;7.454;2023-04-05T21:08:08;97963.22;;;3.09;51.94
54918;BME280;40818;50.562;7.454;2023-04-05T21:18:12;97958.56;;;2.92;52.68
54918;BME280;40818;50.562;7.454;2023-04-05T21:28:18;97952.13;;;2.80;53.14
54918;BME280;40818;50.562;7.454;2023-04-05T21:38:21;97949.13;;;2.66;53.15
54918;BME280;40818;50.562;7.454;2023-04-05T21:48:27;97943.41;;;2.56;53.51
54918;BME280;40818;50.562;7.454;2023-04-05T21:58:31;97951.22;;;2.53;53.54
54918;BME280;40818;50.562;7.454;2023-04-05T22:08:37;97939.66;;;2.39;54.47
54918;BME280;40818;50.562;7.454;2023-04-05T22:18:40;97931.50;;;2.25;57.06
54918;BME280;40818;50.562;7.454;2023-04-05T22:28:46;97931.06;;;2.11;58.71
54918;BME280;40818;50.562;7.454;2023-04-05T22:38:50;97923.47;;;2.08;57.70
54918;BME280;40818;50.562;7.454;2023-04-05T22:48:56;97932.19;;;2.00;57.93
54918;BME280;40818;50.562;7.454;2023-04-05T22:59:00;97923.91;;;1.92;60.51
54918;BME280;40818;50.562;7.454;2023-04-05T23:09:06;97929.28;;;1.83;61.69
54918;BME280;40818;50.562;7.454;2023-04-05T23:19:10;97920.94;;;1.75;62.21
54918;BME280;40818;50.562;7.454;2023-04-05T23:29:16;97923.69;;;1.68;61.37
54918;BME280;40818;50.562;7.454;2023-04-05T23:39:20;97917.84;;;1.63;63.04
54918;BME280;40818;50.562;7.454;2023-04-05T23:49:26;97903.63;;;1.51;63.15
54918;BME280;40818;50.562;7.454;2023-04-05T23:59:29;97895.41;;;1.40;63.24
